Terminal Aerodrome Forecast
Issued by NWS Cleveland, OH

Home | Current Version | Previous Version | Graphics & Text | Print | Product List | Glossary On
Versions: 1 2 3 4 5 6 7 8 9 10 11 12 13 14
864
FTUS41 KCLE 242332
TAFERI
TAF
KERI 242332Z 2500/2524 05006KT P6SM SKC
     FM251200 10005KT P6SM SKC
     FM251600 04010KT P6SM SKC=

USA.gov is the U.S. government's official web portal to all federal, state and local government web resources and services.